Time;durP1;ratioP1;P1;durP2;ratioP2;P2;SDS_P1;SDS_P2;PMS_P1;PMS_P2;Temp;Humidity;BMP_temperature;BMP_pressure;BME280_temperature;BME280_humidity;BME280_pressure;Samples;Min_cycle;Max_cycle;Signal;HPM_P1;HPM_P2
2024/01/19 00:01:30;;;;;;;1.00;1.00;;;1.50;99.90;;;;;;5047211;28;20050;-83
2024/01/19 00:03:56;;;;;;;0.73;0.73;;;1.80;99.90;;;;;;5052986;28;20040;-83
2024/01/19 00:06:22;;;;;;;0.70;0.70;;;0.00;99.90;;;;;;5054809;28;20404;-87
2024/01/19 00:08:48;;;;;;;0.80;0.80;;;1.20;99.90;;;;;;5037043;28;20508;-84
2024/01/19 00:11:15;;;;;;;0.70;0.70;;;0.00;99.90;;;;;;5061765;28;20037;-81
2024/01/19 00:13:44;;;;;;;0.80;0.80;;;0.00;99.90;;;;;;5044829;28;20549;-81
2024/01/19 00:16:10;;;;;;;0.65;0.65;;;0.00;99.90;;;;;;5044775;28;20135;-81
2024/01/19 00:18:36;;;;;;;0.73;0.73;;;0.10;99.90;;;;;;5059540;28;20472;-84
2024/01/19 00:21:02;;;;;;;0.80;0.80;;;0.20;99.90;;;;;;5045183;28;20024;-82
2024/01/19 00:23:28;;;;;;;0.80;0.80;;;0.30;99.90;;;;;;5060535;28;20482;-83
2024/01/19 00:25:53;;;;;;;0.80;0.80;;;0.40;99.90;;;;;;5027383;28;20045;-81
2024/01/19 00:28:19;;;;;;;0.65;0.65;;;0.40;99.90;;;;;;5044612;28;20056;-82
2024/01/19 00:30:45;;;;;;;0.77;0.77;;;0.50;99.90;;;;;;5041851;28;20119;-84
2024/01/19 00:33:11;;;;;;;0.60;0.60;;;0.40;99.90;;;;;;5043310;28;20087;-85
2024/01/19 00:35:37;;;;;;;0.80;0.80;;;0.40;99.90;;;;;;5046529;28;20052;-80
2024/01/19 00:38:03;;;;;;;0.70;0.70;;;0.40;99.90;;;;;;5042351;28;20044;-82
2024/01/19 00:40:29;;;;;;;0.75;0.75;;;0.50;99.90;;;;;;5064059;28;20532;-82
2024/01/19 00:42:55;;;;;;;0.70;0.70;;;0.50;99.90;;;;;;5061156;28;20041;-83
2024/01/19 00:45:21;;;;;;;0.82;0.82;;;0.50;99.90;;;;;;5062822;28;20029;-81
2024/01/19 00:47:46;;;;;;;0.65;0.65;;;0.50;99.90;;;;;;5047778;28;20149;-86
2024/01/19 00:50:13;;;;;;;0.63;0.63;;;1.90;99.90;;;;;;5037829;28;20041;-80
2024/01/19 00:52:38;;;;;;;0.60;0.60;;;0.40;99.90;;;;;;5051490;28;20068;-82
2024/01/19 00:55:09;;;;;;;0.77;0.77;;;0.40;99.90;;;;;;5065307;28;20440;-85
2024/01/19 00:57:36;;;;;;;0.70;0.70;;;0.40;99.90;;;;;;5062734;28;20071;-82
2024/01/19 01:00:03;;;;;;;0.60;0.60;;;0.50;99.90;;;;;;5046672;28;20040;-84
2024/01/19 01:02:29;;;;;;;0.80;0.80;;;0.50;99.90;;;;;;5031955;28;20104;-84
2024/01/19 01:04:55;;;;;;;0.70;0.70;;;0.40;99.90;;;;;;5063678;28;20068;-83
2024/01/19 01:07:22;;;;;;;0.70;0.70;;;1.00;99.90;;;;;;5058596;28;20051;-81
2024/01/19 01:09:48;;;;;;;0.60;0.60;;;0.30;99.90;;;;;;5048722;28;20087;-83
2024/01/19 01:12:14;;;;;;;0.70;0.70;;;0.80;99.90;;;;;;5047350;28;20076;-81
2024/01/19 01:14:40;;;;;;;0.70;0.70;;;0.40;99.90;;;;;;5034429;28;20044;-82
2024/01/19 01:17:06;;;;;;;0.70;0.70;;;0.40;99.90;;;;;;5046081;28;20036;-82
2024/01/19 01:19:32;;;;;;;0.57;0.57;;;0.40;99.90;;;;;;5072625;28;20029;-81
2024/01/19 01:21:58;;;;;;;0.45;0.45;;;0.30;99.90;;;;;;5062853;28;20090;-81
2024/01/19 01:24:24;;;;;;;0.70;0.70;;;0.30;99.90;;;;;;5056685;28;20037;-80
2024/01/19 01:26:50;;;;;;;0.65;0.65;;;0.20;99.90;;;;;;5047549;28;20539;-81
2024/01/19 01:29:16;;;;;;;0.70;0.70;;;0.20;99.90;;;;;;5060615;28;20040;-83
2024/01/19 01:31:41;;;;;;;0.80;0.80;;;0.10;99.90;;;;;;5052908;28;20048;-82
2024/01/19 01:34:08;;;;;;;0.70;0.70;;;0.10;99.90;;;;;;5037603;28;20041;-83
2024/01/19 01:36:34;;;;;;;0.80;0.80;;;0.00;99.90;;;;;;5052408;28;20087;-81
2024/01/19 01:39:00;;;;;;;0.70;0.70;;;-0.50;99.90;;;;;;5037233;28;20386;-81
2024/01/19 01:41:25;;;;;;;0.60;0.60;;;0.00;99.90;;;;;;5052725;28;20032;-83
2024/01/19 01:43:51;;;;;;;0.70;0.70;;;0.00;99.90;;;;;;5054625;28;20098;-82
2024/01/19 01:46:17;;;;;;;0.80;0.80;;;0.00;99.90;;;;;;5032964;28;20514;-78
2024/01/19 01:48:43;;;;;;;0.77;0.77;;;-0.10;99.90;;;;;;5041973;28;20097;-80
2024/01/19 01:51:09;;;;;;;0.63;0.63;;;-0.20;99.90;;;;;;5051107;28;20242;-81
2024/01/19 01:53:35;;;;;;;;;;;-0.20;99.90;;;;;;5052382;28;20365;-83
2024/01/19 01:56:05;;;;;;;0.65;0.65;;;-0.30;99.90;;;;;;5047103;28;19920;-82
2024/01/19 01:58:31;;;;;;;0.70;0.70;;;-0.30;99.90;;;;;;5029758;28;20060;-80
2024/01/19 02:00:57;;;;;;;;;;;-0.30;99.90;;;;;;5063912;28;20036;-80
2024/01/19 02:03:23;;;;;;;0.80;0.80;;;-0.30;99.90;;;;;;5051020;28;20000;-82
2024/01/19 02:05:49;;;;;;;0.70;0.70;;;1.00;99.90;;;;;;5067804;28;20099;-83
2024/01/19 02:08:15;;;;;;;0.80;0.80;;;-0.20;99.90;;;;;;5046236;28;20049;-84
2024/01/19 02:10:41;;;;;;;0.70;0.70;;;-0.20;99.90;;;;;;5064397;28;20110;-80
2024/01/19 02:13:07;;;;;;;0.82;0.82;;;0.00;99.90;;;;;;5050710;28;20037;-83
2024/01/19 02:15:35;;;;;;;0.70;0.70;;;0.00;99.90;;;;;;5049262;28;20052;-85
2024/01/19 02:18:01;;;;;;;0.70;0.70;;;0.10;99.90;;;;;;5070290;28;20028;-83
2024/01/19 02:20:26;;;;;;;0.60;0.60;;;0.10;99.90;;;;;;5064661;28;20044;-82
2024/01/19 02:22:54;;;;;;;0.60;0.60;;;0.10;99.90;;;;;;5068577;28;20037;-79
2024/01/19 02:25:20;;;;;;;0.80;0.80;;;0.10;99.90;;;;;;5068720;28;20036;-81
2024/01/19 02:27:46;;;;;;;0.70;0.70;;;0.10;99.90;;;;;;5041929;28;20443;-78
2024/01/19 02:30:12;;;;;;;0.70;0.70;;;0.10;99.90;;;;;;5070311;28;20036;-79
2024/01/19 02:32:38;;;;;;;0.70;0.70;;;0.10;99.90;;;;;;5048246;28;20417;-81
2024/01/19 02:35:04;;;;;;;;;;;0.00;99.90;;;;;;5048430;28;20043;-79
2024/01/19 02:37:30;;;;;;;0.60;0.60;;;-0.10;99.90;;;;;;5061210;28;19921;-80
2024/01/19 02:39:56;;;;;;;0.70;0.70;;;-0.20;99.90;;;;;;5048545;28;20041;-82
2024/01/19 02:42:22;;;;;;;0.75;0.75;;;-0.20;99.90;;;;;;5038758;28;20473;-79
2024/01/19 02:44:48;;;;;;;0.77;0.77;;;1.00;99.90;;;;;;5013918;28;20040;-80
2024/01/19 02:47:14;;;;;;;0.80;0.80;;;-0.40;99.90;;;;;;5029453;28;20033;-80
2024/01/19 02:49:39;;;;;;;0.80;0.80;;;-0.50;99.90;;;;;;5052698;28;20036;-83
2024/01/19 02:52:05;;;;;;;0.80;0.80;;;-0.50;99.90;;;;;;5064727;28;20091;-79
2024/01/19 02:54:31;;;;;;;0.70;0.70;;;-0.60;99.90;;;;;;5063026;28;20037;-81
2024/01/19 02:56:57;;;;;;;0.80;0.80;;;-0.70;99.90;;;;;;5036615;28;20043;-82
2024/01/19 02:59:23;;;;;;;0.70;0.70;;;-0.80;99.90;;;;;;5058195;28;20056;-80
2024/01/19 03:01:49;;;;;;;0.80;0.80;;;-0.80;99.90;;;;;;5052370;28;20042;-81
2024/01/19 03:04:16;;;;;;;0.80;0.80;;;-0.90;99.90;;;;;;5051773;28;20032;-80
2024/01/19 03:06:42;;;;;;;0.70;0.70;;;-0.90;99.90;;;;;;5034691;28;20041;-82
2024/01/19 03:09:07;;;;;;;0.82;0.82;;;-0.40;99.90;;;;;;5047399;28;20036;-80
2024/01/19 03:11:33;;;;;;;0.80;0.80;;;-0.90;99.90;;;;;;5042129;28;20124;-81
2024/01/19 03:13:59;;;;;;;;;;;-0.90;99.90;;;;;;5062550;28;20127;-82
2024/01/19 03:16:24;;;;;;;0.65;0.65;;;-0.90;99.90;;;;;;5043326;28;19920;-79
2024/01/19 03:18:54;;;;;;;0.80;0.80;;;-1.00;99.90;;;;;;5027256;28;20454;-81
2024/01/19 03:21:20;;;;;;;0.73;0.73;;;-1.00;99.90;;;;;;5045791;28;20048;-83
2024/01/19 03:23:46;;;;;;;0.73;0.73;;;-1.10;99.90;;;;;;5049080;28;20045;-79
2024/01/19 03:26:14;;;;;;;0.90;0.90;;;-1.20;99.90;;;;;;5041857;28;20569;-81
2024/01/19 03:28:39;;;;;;;0.70;0.70;;;-1.20;99.90;;;;;;5051186;28;20141;-81
2024/01/19 03:31:05;;;;;;;0.90;0.90;;;-1.20;99.90;;;;;;5052749;28;20765;-79
2024/01/19 03:33:31;;;;;;;0.70;0.70;;;-1.70;99.90;;;;;;5038961;28;20507;-83
2024/01/19 03:35:57;;;;;;;0.80;0.80;;;-0.90;99.90;;;;;;5050680;28;20051;-81
2024/01/19 03:38:23;;;;;;;0.60;0.60;;;-0.70;99.90;;;;;;5032724;28;20032;-83
2024/01/19 03:40:49;;;;;;;0.75;0.75;;;-0.60;99.90;;;;;;5053811;28;20118;-78
2024/01/19 03:43:15;;;;;;;1.20;1.20;;;-0.50;99.90;;;;;;5056742;28;20036;-81
2024/01/19 03:45:40;;;;;;;0.70;0.70;;;-0.40;99.90;;;;;;5070231;28;20032;-79
2024/01/19 03:48:08;;;;;;;0.80;0.80;;;-0.40;99.90;;;;;;5048607;28;20371;-84
2024/01/19 03:50:33;;;;;;;0.90;0.90;;;-0.40;99.90;;;;;;5050292;28;20049;-82
2024/01/19 03:52:59;;;;;;;0.63;0.63;;;-0.40;99.90;;;;;;5065609;28;20089;-81
2024/01/19 03:55:25;;;;;;;0.65;0.65;;;0.10;99.90;;;;;;5054316;28;20036;-82
2024/01/19 03:57:50;;;;;;;0.70;0.70;;;0.30;99.90;;;;;;5047885;28;20048;-80
2024/01/19 04:00:16;;;;;;;0.73;0.73;;;-0.50;99.90;;;;;;5058897;28;20075;-83
2024/01/19 04:02:42;;;;;;;0.80;0.80;;;-0.60;99.90;;;;;;5035678;28;20060;-79
2024/01/19 04:05:08;;;;;;;0.80;0.80;;;-0.70;99.90;;;;;;5044263;28;20148;-79
2024/01/19 04:07:33;;;;;;;0.70;0.70;;;-0.70;99.90;;;;;;5067513;28;20097;-82
2024/01/19 04:09:59;;;;;;;0.80;0.80;;;-0.60;99.90;;;;;;5070421;28;20107;-81
2024/01/19 04:12:26;;;;;;;0.75;0.75;;;-0.60;99.90;;;;;;5052899;28;20082;-82
2024/01/19 04:14:52;;;;;;;0.70;0.70;;;-0.70;99.90;;;;;;5048235;28;20465;-83
2024/01/19 04:17:18;;;;;;;0.70;0.70;;;-0.60;99.90;;;;;;5066575;28;20081;-81
2024/01/19 04:19:43;;;;;;;0.70;0.70;;;-0.70;99.90;;;;;;5031635;28;20041;-80
2024/01/19 04:22:15;;;;;;;2.08;1.98;;;-0.60;99.90;;;;;;5036601;28;20508;-80
2024/01/19 04:24:41;;;;;;;0.60;0.60;;;-0.70;99.90;;;;;;5061928;28;20205;-80
2024/01/19 04:27:07;;;;;;;0.88;0.88;;;-0.60;99.90;;;;;;5065023;28;20123;-81
2024/01/19 04:29:32;;;;;;;0.77;0.77;;;-0.50;99.90;;;;;;5041473;28;20040;-79
2024/01/19 04:31:58;;;;;;;1.25;1.15;;;-0.60;99.90;;;;;;5042483;28;20040;-80
2024/01/19 04:34:24;;;;;;;0.70;0.70;;;0.80;99.90;;;;;;5050880;28;20497;-80
2024/01/19 04:36:50;;;;;;;0.77;0.77;;;-0.60;99.90;;;;;;5047152;28;20033;-82
2024/01/19 04:39:16;;;;;;;0.70;0.70;;;-0.70;99.90;;;;;;5036542;28;20139;-80
2024/01/19 04:41:45;;;;;;;0.75;0.75;;;-0.80;99.90;;;;;;5048591;28;20056;-81
2024/01/19 04:44:11;;;;;;;0.70;0.70;;;-0.80;99.90;;;;;;5066318;28;20036;-80
2024/01/19 04:46:36;;;;;;;0.90;0.90;;;-0.80;99.90;;;;;;5043882;28;20032;-82
2024/01/19 04:49:02;;;;;;;0.70;0.70;;;-0.80;99.90;;;;;;5060524;28;20045;-79
2024/01/19 04:51:28;;;;;;;0.57;0.57;;;-0.90;99.90;;;;;;5039881;28;20040;-81
2024/01/19 04:53:54;;;;;;;0.60;0.60;;;-0.90;99.90;;;;;;5045506;28;20128;-80
2024/01/19 04:56:20;;;;;;;0.80;0.80;;;-0.90;99.90;;;;;;5058691;28;20477;-78
2024/01/19 04:58:45;;;;;;;0.80;0.80;;;-0.60;99.90;;;;;;5039731;28;20063;-82
2024/01/19 05:01:11;;;;;;;0.80;0.80;;;-1.00;99.90;;;;;;5047786;28;20392;-80
2024/01/19 05:03:37;;;;;;;0.90;0.90;;;-1.10;99.90;;;;;;5043114;28;20809;-79
2024/01/19 05:06:02;;;;;;;0.70;0.70;;;-1.10;99.90;;;;;;5039845;28;20081;-78
2024/01/19 05:08:28;;;;;;;0.80;0.80;;;-1.10;99.90;;;;;;5058925;28;20044;-80
2024/01/19 05:10:54;;;;;;;0.80;0.80;;;-1.20;99.90;;;;;;5052789;28;20064;-79
2024/01/19 05:13:20;;;;;;;0.80;0.80;;;-1.10;99.90;;;;;;5050752;28;20036;-82
2024/01/19 05:15:47;;;;;;;0.70;0.70;;;-1.10;99.90;;;;;;5048741;28;20361;-78
2024/01/19 05:18:12;;;;;;;0.80;0.80;;;-0.20;99.90;;;;;;5062705;28;20560;-80
2024/01/19 05:20:38;;;;;;;0.80;0.80;;;-0.90;99.90;;;;;;5051023;28;20115;-78
2024/01/19 05:23:04;;;;;;;0.70;0.70;;;-0.70;99.90;;;;;;5061931;28;20120;-78
2024/01/19 05:25:30;;;;;;;0.75;0.75;;;-0.70;99.90;;;;;;5044203;28;20037;-77
2024/01/19 05:27:56;;;;;;;0.80;0.80;;;-0.50;99.90;;;;;;5032295;28;20048;-77
2024/01/19 05:30:23;;;;;;;;;;;-0.50;99.90;;;;;;5032802;28;20131;-79
2024/01/19 05:32:49;;;;;;;0.80;0.80;;;-0.70;99.90;;;;;;5065256;28;20366;-81
2024/01/19 05:35:14;;;;;;;0.70;0.70;;;-0.40;99.90;;;;;;5065293;28;20048;-80
2024/01/19 05:37:40;;;;;;;0.73;0.73;;;-0.60;99.90;;;;;;5052680;28;20048;-82
2024/01/19 05:40:07;;;;;;;0.80;0.80;;;0.20;99.90;;;;;;5067201;28;20770;-82
2024/01/19 05:42:32;;;;;;;0.80;0.80;;;-0.90;99.90;;;;;;5043838;28;20115;-82
2024/01/19 05:44:58;;;;;;;0.90;0.90;;;-1.10;99.90;;;;;;5038616;28;20120;-80
2024/01/19 05:47:24;;;;;;;0.80;0.80;;;-1.20;99.90;;;;;;5053534;28;20075;-81
2024/01/19 05:49:50;;;;;;;0.80;0.80;;;-1.30;99.90;;;;;;5031430;28;20093;-82
2024/01/19 05:52:15;;;;;;;0.80;0.80;;;-1.50;99.90;;;;;;5048054;28;20126;-79
2024/01/19 05:54:44;;;;;;;0.70;0.70;;;-1.40;99.90;;;;;;5061572;28;20494;-82
2024/01/19 05:57:10;;;;;;;0.80;0.80;;;-1.50;99.90;;;;;;5057502;28;20128;-78
2024/01/19 05:59:39;;;;;;;0.70;0.70;;;-1.60;99.90;;;;;;5062892;28;20049;-79
2024/01/19 06:02:05;;;;;;;;;;;-1.60;99.90;;;;;;5061607;28;20041;-79
2024/01/19 06:04:36;;;;;;;0.70;0.70;;;-1.50;99.90;;;;;;5062728;28;20259;-78
2024/01/19 06:07:02;;;;;;;0.80;0.80;;;-1.50;99.90;;;;;;5055003;28;20556;-81
2024/01/19 06:09:28;;;;;;;;;;;-1.40;99.90;;;;;;5054614;28;20418;-80
2024/01/19 06:11:54;;;;;;;0.70;0.70;;;-1.30;99.90;;;;;;5065697;28;20415;-80
2024/01/19 06:14:20;;;;;;;0.80;0.80;;;-1.20;99.90;;;;;;5069004;28;20040;-79
2024/01/19 06:16:46;;;;;;;0.90;0.90;;;-1.20;99.90;;;;;;5038236;28;20124;-81
2024/01/19 06:19:11;;;;;;;0.80;0.80;;;-0.10;99.90;;;;;;5059128;28;20510;-78
2024/01/19 06:21:37;;;;;;;0.80;0.80;;;0.20;99.90;;;;;;5070416;28;20101;-80
2024/01/19 06:24:03;;;;;;;0.70;0.70;;;-0.90;99.90;;;;;;5030588;28;20045;-78
2024/01/19 06:26:32;;;;;;;0.80;0.80;;;-1.00;99.90;;;;;;5036766;28;20595;-79
2024/01/19 06:29:01;;;;;;;0.60;0.60;;;-1.00;99.90;;;;;;5014387;28;20075;-79
2024/01/19 06:31:26;;;;;;;0.80;0.80;;;-1.20;99.90;;;;;;5047679;28;20051;-83
2024/01/19 06:33:52;;;;;;;0.90;0.90;;;-1.30;99.90;;;;;;5044684;28;20040;-83
2024/01/19 06:36:18;;;;;;;0.80;0.80;;;-1.40;99.90;;;;;;5043709;28;20043;-82
2024/01/19 06:38:43;;;;;;;0.73;0.73;;;-1.40;99.90;;;;;;5038426;28;20060;-80
2024/01/19 06:41:09;;;;;;;1.13;1.13;;;-1.40;99.90;;;;;;5049478;28;20052;-77
2024/01/19 06:43:35;;;;;;;;;;;-1.50;99.90;;;;;;5057837;28;20041;-80
2024/01/19 06:46:00;;;;;;;0.80;0.80;;;-1.50;99.90;;;;;;5046540;28;19923;-81
2024/01/19 06:48:26;;;;;;;0.70;0.70;;;-1.50;99.90;;;;;;5043427;28;20040;-82
2024/01/19 06:50:52;;;;;;;;;;;-1.10;99.90;;;;;;5041745;28;20051;-82
2024/01/19 06:53:17;;;;;;;0.70;0.70;;;-1.60;99.90;;;;;;5042509;28;19927;-79
2024/01/19 06:55:43;;;;;;;;;;;-1.80;99.90;;;;;;5045680;28;20056;-83
2024/01/19 06:58:09;;;;;;;0.80;0.80;;;-1.60;99.90;;;;;;5061200;28;19931;-81
2024/01/19 07:00:34;;;;;;;0.80;0.80;;;-1.60;99.90;;;;;;5026818;28;20059;-82
2024/01/19 07:03:00;;;;;;;0.90;0.90;;;-0.90;99.90;;;;;;5042732;28;20040;-80
2024/01/19 07:05:26;;;;;;;0.70;0.70;;;-1.60;99.90;;;;;;5042121;28;20069;-78
2024/01/19 07:07:52;;;;;;;;;;;-1.40;99.90;;;;;;5056837;28;20178;-79
2024/01/19 07:10:19;;;;;;;0.80;0.80;;;-1.40;99.90;;;;;;5062929;28;19974;-80
2024/01/19 07:12:45;;;;;;;0.80;0.80;;;-1.40;99.90;;;;;;5069973;28;20106;-80
2024/01/19 07:15:11;;;;;;;0.82;0.82;;;-1.40;99.90;;;;;;5041033;28;20076;-82
2024/01/19 07:17:37;;;;;;;;;;;-1.50;99.90;;;;;;5026515;28;20040;-79
2024/01/19 07:20:05;;;;;;;0.80;0.80;;;-1.50;99.90;;;;;;5063855;28;20011;-80
2024/01/19 07:22:31;;;;;;;0.73;0.73;;;-1.50;99.90;;;;;;5047389;28;20043;-80
2024/01/19 07:24:56;;;;;;;0.88;0.88;;;-1.30;99.90;;;;;;5070034;28;20040;-80
2024/01/19 07:27:22;;;;;;;0.80;0.80;;;-1.30;99.90;;;;;;5048776;28;20063;-83
2024/01/19 07:29:48;;;;;;;0.77;0.77;;;-0.40;99.90;;;;;;5059230;28;20037;-81
2024/01/19 07:32:19;;;;;;;0.70;0.70;;;-0.30;99.90;;;;;;5067344;28;20035;-82
2024/01/19 07:34:45;;;;;;;0.70;0.70;;;-1.10;99.90;;;;;;5067396;28;20593;-80
2024/01/19 07:37:11;;;;;;;0.80;0.80;;;-1.10;99.90;;;;;;5050374;28;20039;-80
2024/01/19 07:39:36;;;;;;;0.80;0.80;;;-1.00;99.90;;;;;;5048382;28;20033;-82
2024/01/19 07:42:02;;;;;;;0.90;0.90;;;-0.90;99.90;;;;;;5052310;28;20048;-81
2024/01/19 07:44:28;;;;;;;0.77;0.77;;;-0.90;99.90;;;;;;5029302;28;20052;-80
2024/01/19 07:46:54;;;;;;;0.65;0.65;;;-0.90;99.90;;;;;;5049222;28;20044;-81
2024/01/19 07:49:21;;;;;;;;;;;-1.00;99.90;;;;;;5023066;28;20064;-80
2024/01/19 07:51:50;;;;;;;0.73;0.73;;;-1.10;99.90;;;;;;5068358;28;19916;-82
2024/01/19 07:54:17;;;;;;;0.70;0.70;;;-1.00;99.90;;;;;;5060131;28;20041;-80
2024/01/19 07:56:43;;;;;;;0.68;0.68;;;-0.30;99.90;;;;;;5068210;28;20044;-82
2024/01/19 07:59:09;;;;;;;;;;;0.50;99.90;;;;;;5053748;28;20071;-86
2024/01/19 08:01:35;;;;;;;0.70;0.70;;;-0.90;99.90;;;;;;5078801;28;19916;-85
2024/01/19 08:04:01;;;;;;;;;;;-0.70;99.90;;;;;;5070608;28;20074;-82
2024/01/19 08:06:26;;;;;;;0.75;0.75;;;-0.80;99.90;;;;;;5037233;28;19939;-81
2024/01/19 08:08:52;;;;;;;0.90;0.90;;;-0.70;99.90;;;;;;5048772;28;20087;-84
2024/01/19 08:11:18;;;;;;;0.80;0.80;;;0.40;99.90;;;;;;5061764;28;20047;-82
2024/01/19 08:13:44;;;;;;;0.70;0.70;;;-0.20;99.90;;;;;;5061297;28;20044;-83
2024/01/19 08:16:09;;;;;;;0.77;0.77;;;-0.60;99.90;;;;;;5051823;28;20048;-84
2024/01/19 08:18:35;;;;;;;0.80;0.80;;;-0.70;99.90;;;;;;5047699;28;20124;-81
2024/01/19 08:21:04;;;;;;;0.90;0.90;;;-0.70;99.90;;;;;;5054245;28;20029;-83
2024/01/19 08:23:30;;;;;;;0.70;0.70;;;-0.70;99.90;;;;;;5028115;28;20539;-81
2024/01/19 08:25:56;;;;;;;;;;;-0.60;99.90;;;;;;5049590;28;20032;-81
2024/01/19 08:28:22;;;;;;;0.70;0.70;;;-0.60;99.90;;;;;;5051372;28;19927;-82
2024/01/19 08:30:49;;;;;;;1.10;1.10;;;-0.60;99.90;;;;;;5066089;28;20040;-81
2024/01/19 08:33:14;;;;;;;0.70;0.70;;;-0.60;99.90;;;;;;5055849;28;20041;-82
2024/01/19 08:35:40;;;;;;;0.80;0.80;;;-0.60;99.90;;;;;;5067956;28;20391;-82
2024/01/19 08:38:06;;;;;;;0.80;0.80;;;-0.60;99.90;;;;;;5063963;28;20050;-83
2024/01/19 08:40:31;;;;;;;0.82;0.82;;;-0.60;99.90;;;;;;5046723;28;20063;-81
2024/01/19 08:42:57;;;;;;;0.70;0.70;;;-0.60;99.90;;;;;;5067776;28;20028;-83
2024/01/19 08:45:23;;;;;;;0.60;0.60;;;0.20;99.90;;;;;;5043909;28;20037;-82
2024/01/19 08:47:50;;;;;;;0.80;0.80;;;-0.60;99.90;;;;;;5044855;28;20288;-82
2024/01/19 08:50:16;;;;;;;0.63;0.63;;;-0.30;99.90;;;;;;5067662;28;20037;-80
2024/01/19 08:52:42;;;;;;;0.80;0.80;;;-0.60;99.90;;;;;;5048478;28;20138;-81
2024/01/19 08:55:08;;;;;;;1.27;1.27;;;-0.70;99.90;;;;;;5042887;28;20493;-82
2024/01/19 08:57:36;;;;;;;0.65;0.65;;;-0.60;99.90;;;;;;5051756;28;20083;-85
2024/01/19 09:00:04;;;;;;;0.77;0.77;;;-0.60;99.90;;;;;;5030340;28;20100;-81
2024/01/19 09:02:30;;;;;;;0.88;0.85;;;-0.50;99.90;;;;;;5053224;28;20045;-82
2024/01/19 09:04:55;;;;;;;0.80;0.80;;;-0.40;99.90;;;;;;5017363;28;20505;-81
2024/01/19 09:07:21;;;;;;;0.70;0.70;;;-0.40;99.90;;;;;;5060957;28;20037;-81
2024/01/19 09:09:48;;;;;;;0.68;0.68;;;-0.40;99.90;;;;;;5041103;28;20086;-84
2024/01/19 09:12:13;;;;;;;0.70;0.70;;;-0.20;99.90;;;;;;5043278;28;20119;-86
2024/01/19 09:14:39;;;;;;;1.10;1.10;;;-0.20;99.90;;;;;;5048989;28;20066;-85
2024/01/19 09:17:05;;;;;;;0.80;0.80;;;0.30;99.90;;;;;;5027277;28;20133;-82
2024/01/19 09:19:31;;;;;;;0.80;0.80;;;-0.10;99.90;;;;;;5040923;28;20187;-82
2024/01/19 09:21:57;;;;;;;1.20;1.15;;;0.00;99.90;;;;;;5052495;28;20047;-83
2024/01/19 09:24:23;;;;;;;0.77;0.77;;;0.10;99.90;;;;;;5036375;28;20040;-80
2024/01/19 09:26:52;;;;;;;0.70;0.70;;;0.10;99.90;;;;;;5053925;28;20040;-81
2024/01/19 09:29:17;;;;;;;0.80;0.80;;;0.20;99.90;;;;;;5062387;28;20040;-81
2024/01/19 09:31:47;;;;;;;1.38;1.27;;;0.20;99.90;;;;;;5036024;28;20148;-83
2024/01/19 09:34:14;;;;;;;0.77;0.77;;;0.50;99.90;;;;;;5034132;28;20055;-81
2024/01/19 09:36:40;;;;;;;1.00;1.00;;;0.30;99.90;;;;;;5052207;28;20101;-83
2024/01/19 09:39:07;;;;;;;1.15;1.15;;;0.40;99.90;;;;;;5072888;28;20048;-81
2024/01/19 09:41:38;;;;;;;0.70;0.70;;;0.40;99.90;;;;;;5039868;28;20033;-84
2024/01/19 09:44:10;;;;;;;0.73;0.73;;;0.50;99.90;;;;;;5047937;28;20394;-85
2024/01/19 09:46:56;;;;;;;0.80;0.80;;;0.60;99.90;;;;;;5066337;28;20037;-83
2024/01/19 09:50:00;;;;;;;0.75;0.75;;;0.60;99.90;;;;;;5049085;28;20048;-81
2024/01/19 09:52:47;;;;;;;1.38;1.35;;;0.60;99.90;;;;;;5047083;28;20029;-84
2024/01/19 09:55:14;;;;;;;;;;;0.70;99.90;;;;;;5073682;28;20036;-82
2024/01/19 09:57:45;;;;;;;0.80;0.80;;;0.70;99.90;;;;;;5048470;28;20300;-82
2024/01/19 10:00:16;;;;;;;0.80;0.80;;;0.80;99.90;;;;;;5070409;28;20033;-84
2024/01/19 10:02:47;;;;;;;0.70;0.70;;;0.90;99.90;;;;;;5039251;28;20043;-84
2024/01/19 10:05:14;;;;;;;0.80;0.80;;;1.00;99.90;;;;;;5061566;28;20037;-80
2024/01/19 10:07:57;;;;;;;0.70;0.70;;;1.10;99.90;;;;;;5047807;28;20094;-79
2024/01/19 10:10:25;;;;;;;0.80;0.80;;;1.30;99.90;;;;;;5049063;28;20098;-82
2024/01/19 10:12:51;;;;;;;0.65;0.65;;;1.30;99.90;;;;;;5071812;28;20052;-81
2024/01/19 10:15:17;;;;;;;0.70;0.70;;;1.40;99.90;;;;;;5047804;28;20055;-83
2024/01/19 10:17:45;;;;;;;0.73;0.73;;;1.50;99.90;;;;;;5018624;28;20461;-82
2024/01/19 10:20:13;;;;;;;0.70;0.70;;;1.60;99.90;;;;;;5065440;28;20494;-83
2024/01/19 10:22:39;;;;;;;0.65;0.65;;;1.80;99.90;;;;;;5073268;28;20048;-83
2024/01/19 10:25:08;;;;;;;0.68;0.68;;;;;;;;;;5056135;28;21284;-85
2024/01/19 10:27:46;;;;;;;0.73;0.73;;;1.80;99.90;;;;;;5056826;28;20071;-81
2024/01/19 10:30:21;;;;;;;0.63;0.63;;;1.80;99.90;;;;;;5069723;28;20043;-83
2024/01/19 10:32:49;;;;;;;0.80;0.80;;;1.70;99.90;;;;;;5049149;28;20044;-82
2024/01/19 10:35:17;;;;;;;0.60;0.60;;;2.10;99.90;;;;;;5050830;28;20469;-83
2024/01/19 10:37:44;;;;;;;0.90;0.90;;;1.80;99.90;;;;;;5049418;28;20052;-84
2024/01/19 10:40:17;;;;;;;0.70;0.70;;;1.80;99.90;;;;;;5057807;28;20123;-83
2024/01/19 10:42:45;;;;;;;0.70;0.70;;;1.90;99.90;;;;;;5046330;28;20120;-82
2024/01/19 10:45:21;;;;;;;0.70;0.70;;;2.00;99.90;;;;;;5030318;28;20063;-82
2024/01/19 10:47:51;;;;;;;0.63;0.63;;;2.00;99.90;;;;;;5072373;28;20050;-81
2024/01/19 10:50:17;;;;;;;0.73;0.73;;;2.10;99.90;;;;;;5055614;28;20048;-81
2024/01/19 10:52:44;;;;;;;;;;;2.20;99.90;;;;;;5019479;28;20045;-84
2024/01/19 10:55:19;;;;;;;0.70;0.70;;;2.20;99.90;;;;;;5071185;28;19938;-84
2024/01/19 10:57:47;;;;;;;0.65;0.65;;;2.30;99.90;;;;;;5053902;28;20082;-83
2024/01/19 11:00:23;;;;;;;0.68;0.68;;;3.40;99.90;;;;;;5063258;28;20040;-84
2024/01/19 11:02:55;;;;;;;0.65;0.65;;;2.40;99.90;;;;;;5062120;28;20048;-84
2024/01/19 11:05:21;;;;;;;0.70;0.70;;;2.50;99.90;;;;;;5069010;28;20680;-85
2024/01/19 11:07:49;;;;;;;;;;;2.50;99.90;;;;;;5065331;28;20139;-82
2024/01/19 11:10:15;;;;;;;0.52;0.52;;;2.60;99.90;;;;;;5067166;28;19927;-82
2024/01/19 11:12:49;;;;;;;0.70;0.70;;;2.60;99.90;;;;;;5058295;28;20047;-84
2024/01/19 11:15:27;;;;;;;3.45;3.22;;;2.70;99.90;;;;;;5049119;28;20819;-82
2024/01/19 11:17:55;;;;;;;0.60;0.60;;;2.90;99.90;;;;;;5063342;28;20049;-83
2024/01/19 11:20:23;;;;;;;0.70;0.70;;;2.90;99.90;;;;;;5069568;28;20050;-83
2024/01/19 11:22:53;;;;;;;0.70;0.70;;;3.00;99.90;;;;;;5049708;28;20044;-83
2024/01/19 11:25:43;;;;;;;0.63;0.63;;;3.10;99.90;;;;;;5076222;28;20041;-85
2024/01/19 11:28:20;;;;;;;0.63;0.63;;;3.20;99.90;;;;;;5024193;28;20062;-84
2024/01/19 11:31:00;;;;;;;0.60;0.60;;;3.10;99.90;;;;;;5049900;28;20123;-84
2024/01/19 11:33:31;;;;;;;0.80;0.80;;;3.30;99.90;;;;;;5049137;28;20063;-83
2024/01/19 11:35:57;;;;;;;0.70;0.70;;;3.30;99.90;;;;;;5054535;28;20234;-85
2024/01/19 11:38:45;;;;;;;0.70;0.70;;;3.40;99.90;;;;;;5035595;28;20072;-83
2024/01/19 11:41:31;;;;;;;0.60;0.60;;;3.50;99.90;;;;;;5066349;28;20097;-83
2024/01/19 11:43:57;;;;;;;0.60;0.60;;;3.50;99.90;;;;;;5059160;28;20044;-83
2024/01/19 11:46:51;;;;;;;0.50;0.50;;;3.50;99.90;;;;;;5015711;28;20046;-83
2024/01/19 11:49:29;;;;;;;0.60;0.60;;;3.50;99.90;;;;;;5048720;28;20055;-83
2024/01/19 11:51:56;;;;;;;3.05;2.75;;;3.50;99.90;;;;;;5051287;28;20367;-81
2024/01/19 11:54:30;;;;;;;0.60;0.60;;;3.60;99.90;;;;;;5049850;28;20041;-83
2024/01/19 11:57:20;;;;;;;0.70;0.70;;;3.60;99.90;;;;;;5035105;28;20049;-83
2024/01/19 11:59:47;;;;;;;0.73;0.73;;;3.60;99.90;;;;;;5041034;28;20053;-80
2024/01/19 12:02:31;;;;;;;0.60;0.60;;;3.60;99.90;;;;;;5039029;28;20490;-82
2024/01/19 12:05:00;;;;;;;0.60;0.60;;;3.60;99.90;;;;;;5064594;28;20390;-84
2024/01/19 12:07:25;;;;;;;0.50;0.50;;;3.60;99.90;;;;;;5073607;28;20803;-81
2024/01/19 12:10:11;;;;;;;0.70;0.70;;;3.80;99.90;;;;;;5031237;28;20044;-84
2024/01/19 12:12:38;;;;;;;0.60;0.60;;;3.70;99.90;;;;;;5066464;28;20075;-84
2024/01/19 12:15:10;;;;;;;0.63;0.63;;;3.70;99.90;;;;;;5052597;28;20465;-84
2024/01/19 12:17:40;;;;;;;0.68;0.68;;;3.70;99.90;;;;;;5067861;28;20043;-83
2024/01/19 12:20:17;;;;;;;0.60;0.60;;;3.70;99.90;;;;;;5047942;28;20041;-82
2024/01/19 12:22:44;;;;;;;0.70;0.70;;;3.90;99.90;;;;;;5063239;28;20119;-83
2024/01/19 12:25:21;;;;;;;0.88;0.82;;;3.80;99.90;;;;;;5075528;28;20417;-82
2024/01/19 12:27:48;;;;;;;0.60;0.60;;;3.80;99.90;;;;;;5074498;28;20037;-81
2024/01/19 12:30:16;;;;;;;0.60;0.60;;;3.90;99.90;;;;;;5055649;28;20039;-82
2024/01/19 12:32:43;;;;;;;1.13;1.13;;;3.90;99.90;;;;;;5068821;28;20044;-81
2024/01/19 12:35:11;;;;;;;0.60;0.60;;;3.90;99.90;;;;;;5051397;28;20079;-83
2024/01/19 12:37:37;;;;;;;0.60;0.60;;;4.00;99.90;;;;;;5032486;28;20451;-84
2024/01/19 12:40:15;;;;;;;;;;;4.00;99.90;;;;;;5069471;28;20101;-84
2024/01/19 12:42:44;;;;;;;;;;;4.00;99.90;;;;;;5065215;28;19917;-80
2024/01/19 12:45:18;;;;;;;0.68;0.68;;;4.10;99.90;;;;;;5067018;28;19920;-82
2024/01/19 12:47:51;;;;;;;0.60;0.60;;;4.10;99.90;;;;;;5065990;28;20058;-88
2024/01/19 12:50:17;;;;;;;0.57;0.57;;;4.10;99.90;;;;;;5048658;28;20149;-85
2024/01/19 12:52:43;;;;;;;;;;;4.10;99.90;;;;;;5053609;28;20087;-82
2024/01/19 12:55:09;;;;;;;0.60;0.60;;;4.10;99.90;;;;;;5068379;28;19951;-84
2024/01/19 12:57:35;;;;;;;0.50;0.50;;;4.10;99.90;;;;;;5052706;28;20133;-83
2024/01/19 13:00:25;;;;;;;0.60;0.60;;;5.40;99.90;;;;;;5071642;28;20123;-82